createdAt,value
2023-02-07T00:01:35.600Z,3.43
2023-02-07T00:04:03.815Z,3.53
2023-02-07T00:06:35.471Z,3.37
2023-02-07T00:09:05.909Z,4.23
2023-02-07T00:11:34.582Z,4.37
2023-02-07T00:14:03.487Z,3.40
2023-02-07T00:16:31.714Z,3.37
2023-02-07T00:19:01.007Z,3.07
2023-02-07T00:21:30.283Z,4.30
2023-02-07T00:24:00.053Z,3.10
2023-02-07T00:26:29.600Z,3.43
2023-02-07T00:28:58.731Z,3.33
2023-02-07T00:31:29.414Z,3.30
2023-02-07T00:34:00.650Z,3.97
2023-02-07T00:36:31.181Z,4.33
2023-02-07T00:39:05.013Z,4.20
2023-02-07T00:41:33.638Z,4.97
2023-02-07T00:44:01.872Z,5.10
2023-02-07T00:46:30.938Z,5.37
2023-02-07T00:48:59.580Z,5.53
2023-02-07T00:51:27.832Z,4.70
2023-02-07T00:53:56.507Z,4.73
2023-02-07T00:56:28.664Z,4.80
2023-02-07T00:58:59.499Z,4.53
2023-02-07T01:01:28.896Z,3.50
2023-02-07T01:03:57.899Z,3.23
2023-02-07T01:06:26.035Z,3.20
2023-02-07T01:08:58.241Z,4.37
2023-02-07T01:11:28.795Z,3.37
2023-02-07T01:13:56.925Z,3.50
2023-02-07T01:16:28.096Z,3.63
2023-02-07T01:18:56.782Z,3.60
2023-02-07T01:21:27.611Z,3.10
2023-02-07T01:23:57.034Z,3.13
2023-02-07T01:26:27.291Z,3.20
2023-02-07T01:28:56.280Z,3.20
2023-02-07T01:31:25.437Z,3.70
2023-02-07T01:33:57.547Z,3.63
2023-02-07T01:36:27.658Z,3.47
2023-02-07T01:38:56.520Z,3.13
2023-02-07T01:41:27.760Z,3.50
2023-02-07T01:43:58.828Z,3.10
2023-02-07T01:46:27.771Z,3.30
2023-02-07T01:48:59.795Z,3.47
2023-02-07T01:51:30.165Z,3.63
2023-02-07T01:54:04.585Z,3.40
2023-02-07T01:56:36.690Z,3.53
2023-02-07T01:59:06.963Z,3.30
2023-02-07T02:01:36.076Z,3.13
2023-02-07T02:04:04.816Z,2.77
2023-02-07T02:06:34.502Z,3.80
2023-02-07T02:09:09.308Z,3.70
2023-02-07T02:12:00.794Z,3.40
2023-02-07T02:14:52.060Z,3.00
2023-02-07T02:17:29.515Z,4.40
2023-02-07T02:20:50.174Z,4.17
2023-02-07T02:23:30.193Z,3.33
2023-02-07T02:26:40.545Z,3.20
2023-02-07T02:29:33.105Z,2.83
2023-02-07T02:32:39.850Z,3.73
2023-02-07T02:35:15.826Z,3.30
2023-02-07T02:37:49.277Z,3.50
2023-02-07T02:40:22.929Z,3.93
2023-02-07T02:42:57.117Z,3.27
2023-02-07T02:45:29.581Z,3.70
2023-02-07T02:47:59.102Z,3.40
2023-02-07T02:50:30.411Z,4.10
2023-02-07T02:52:59.177Z,3.37
2023-02-07T02:55:48.193Z,3.83
2023-02-07T02:58:27.305Z,4.30
2023-02-07T03:01:06.998Z,4.53
2023-02-07T03:03:49.157Z,4.03
2023-02-07T03:06:29.848Z,4.60
2023-02-07T03:09:05.067Z,5.10
2023-02-07T03:11:41.100Z,5.70
2023-02-07T03:14:17.179Z,6.63
2023-02-07T03:16:51.852Z,5.47
2023-02-07T03:19:26.611Z,6.10
2023-02-07T03:22:00.066Z,6.37
2023-02-07T03:24:32.860Z,6.57
2023-02-07T03:27:05.961Z,6.93
2023-02-07T03:29:38.735Z,7.40
2023-02-07T03:32:09.347Z,6.30
2023-02-07T03:34:44.701Z,7.00
2023-02-07T03:37:17.520Z,7.30
2023-02-07T03:39:45.889Z,6.70
2023-02-07T03:42:21.165Z,6.30
2023-02-07T03:44:51.265Z,6.57
2023-02-07T03:47:20.449Z,6.03
2023-02-07T03:49:48.683Z,6.07
2023-02-07T03:52:18.274Z,6.87
2023-02-07T03:54:46.444Z,5.70
2023-02-07T03:57:14.569Z,6.37
2023-02-07T03:59:42.802Z,5.80
2023-02-07T04:02:11.205Z,6.50
2023-02-07T04:04:39.792Z,5.77
2023-02-07T04:07:08.042Z,6.63
2023-02-07T04:09:37.611Z,5.80
2023-02-07T04:12:06.338Z,5.80
2023-02-07T04:14:34.860Z,6.20
2023-02-07T04:17:03.014Z,6.43
2023-02-07T04:19:31.186Z,6.67
2023-02-07T04:21:59.443Z,6.63
2023-02-07T04:24:31.930Z,6.50
2023-02-07T04:27:01.532Z,7.03
2023-02-07T04:29:29.681Z,6.47
2023-02-07T04:31:59.030Z,7.57
2023-02-07T04:34:27.666Z,6.80
2023-02-07T04:36:55.938Z,6.10
2023-02-07T04:39:24.282Z,5.97
2023-02-07T04:41:52.509Z,5.57
2023-02-07T04:44:22.086Z,5.80
2023-02-07T04:46:50.213Z,7.03
2023-02-07T04:49:18.357Z,6.57
2023-02-07T04:51:46.834Z,5.70
2023-02-07T04:54:14.984Z,6.30
2023-02-07T04:56:43.139Z,6.70
2023-02-07T04:59:11.251Z,5.50
2023-02-07T05:01:40.725Z,5.53
2023-02-07T05:04:08.893Z,6.23
2023-02-07T05:06:37.350Z,7.03
2023-02-07T05:09:05.659Z,6.40
2023-02-07T05:11:33.749Z,7.00
2023-02-07T05:14:02.004Z,7.90
2023-02-07T05:16:30.469Z,7.90
2023-02-07T05:19:00.342Z,6.93
2023-02-07T05:21:28.600Z,8.80
2023-02-07T05:23:56.648Z,8.60
2023-02-07T05:26:24.748Z,7.33
2023-02-07T05:28:53.177Z,7.70
2023-02-07T05:31:21.611Z,6.80
2023-02-07T05:33:48.794Z,8.10
2023-02-07T05:36:18.232Z,7.40
2023-02-07T05:38:46.323Z,7.13
2023-02-07T05:41:14.745Z,7.20
2023-02-07T05:43:43.093Z,8.20
2023-02-07T05:46:11.529Z,7.63
2023-02-07T05:48:39.994Z,7.80
2023-02-07T05:51:08.154Z,7.70
2023-02-07T05:53:37.727Z,7.60
2023-02-07T05:56:06.236Z,8.70
2023-02-07T05:58:34.425Z,8.00
2023-02-07T06:01:02.607Z,7.83
2023-02-07T06:03:30.814Z,7.90
2023-02-07T06:05:58.988Z,8.67
2023-02-07T06:08:27.185Z,7.77
2023-02-07T06:10:57.033Z,7.97
2023-02-07T06:13:26.234Z,7.60
2023-02-07T06:15:54.383Z,6.97
2023-02-07T06:18:22.568Z,8.07
2023-02-07T06:20:51.713Z,8.40
2023-02-07T06:23:23.043Z,8.20
2023-02-07T06:25:51.177Z,7.40
2023-02-07T06:28:20.750Z,8.50
2023-02-07T06:30:49.012Z,8.80
2023-02-07T06:33:17.239Z,8.70
2023-02-07T06:35:47.389Z,8.13
2023-02-07T06:38:16.035Z,10.63
2023-02-07T06:40:44.700Z,9.60
2023-02-07T06:43:14.399Z,9.50
2023-02-07T06:45:43.928Z,9.37
2023-02-07T06:48:12.049Z,9.17
2023-02-07T06:50:40.216Z,12.20
2023-02-07T06:53:08.738Z,10.43
2023-02-07T06:55:39.515Z,10.57
2023-02-07T06:58:08.535Z,12.10
2023-02-07T07:00:36.631Z,11.70
2023-02-07T07:03:06.659Z,10.80
2023-02-07T07:05:34.874Z,12.80
2023-02-07T07:08:03.246Z,13.17
2023-02-07T07:10:31.533Z,13.10
2023-02-07T07:12:59.852Z,12.53
2023-02-07T07:15:28.104Z,12.93
2023-02-07T07:17:56.781Z,14.07
2023-02-07T07:20:26.351Z,13.70
2023-02-07T07:22:54.799Z,12.40
2023-02-07T07:25:23.045Z,14.67
2023-02-07T07:27:51.228Z,21.40
2023-02-07T07:30:19.595Z,21.50
2023-02-07T07:32:47.682Z,22.00
2023-02-07T07:35:17.170Z,20.80
2023-02-07T07:37:48.212Z,24.53
2023-02-07T07:40:16.737Z,20.17
2023-02-07T07:42:45.109Z,16.37
2023-02-07T07:45:31.951Z,17.17
2023-02-07T07:48:00.182Z,16.93
2023-02-07T07:50:28.530Z,13.70
2023-02-07T07:52:58.173Z,13.90
2023-02-07T07:55:26.512Z,15.33
2023-02-07T07:57:54.774Z,13.83
2023-02-07T08:00:22.899Z,14.63
2023-02-07T08:02:51.048Z,13.80
2023-02-07T08:05:19.617Z,14.10
2023-02-07T08:07:47.695Z,13.10
2023-02-07T08:10:18.389Z,12.90
2023-02-07T08:12:46.502Z,12.93
2023-02-07T08:15:14.645Z,10.77
2023-02-07T08:17:42.760Z,11.17
2023-02-07T08:20:12.830Z,12.57
2023-02-07T08:22:41.282Z,10.80
2023-02-07T08:25:10.222Z,10.87
2023-02-07T08:27:40.382Z,9.90
2023-02-07T08:30:11.252Z,10.23
2023-02-07T08:32:40.337Z,12.60
2023-02-07T08:35:10.070Z,13.17
2023-02-07T08:37:39.460Z,12.43
2023-02-07T08:40:08.603Z,13.37
2023-02-07T08:42:36.809Z,13.00
2023-02-07T08:45:07.014Z,13.13
2023-02-07T08:47:35.103Z,13.03
2023-02-07T08:50:03.852Z,13.93
2023-02-07T08:52:32.149Z,14.20
2023-02-07T08:55:00.311Z,13.93
2023-02-07T08:57:28.700Z,13.40
2023-02-07T08:59:57.138Z,14.57
2023-02-07T09:02:27.208Z,15.13
2023-02-07T09:04:55.937Z,13.10
2023-02-07T09:07:24.349Z,15.87
2023-02-07T09:09:52.977Z,14.50
2023-02-07T09:12:21.225Z,14.90
2023-02-07T09:14:49.714Z,13.30
2023-02-07T09:17:18.157Z,14.00
2023-02-07T09:19:47.638Z,14.50
2023-02-07T09:22:15.821Z,14.60
2023-02-07T09:24:43.972Z,14.87
2023-02-07T09:27:12.524Z,16.03
2023-02-07T09:29:40.877Z,16.10
2023-02-07T09:32:09.057Z,15.97
2023-02-07T09:34:37.293Z,15.10
2023-02-07T09:37:06.827Z,17.40
2023-02-07T09:39:38.285Z,15.80
2023-02-07T09:42:17.162Z,16.80
2023-02-07T09:44:55.827Z,15.50
2023-02-07T09:47:25.355Z,15.93
2023-02-07T09:49:58.397Z,15.40
2023-02-07T09:52:37.438Z,18.20
2023-02-07T09:55:06.709Z,16.43
2023-02-07T09:57:41.882Z,17.07
2023-02-07T10:00:22.847Z,16.83
2023-02-07T10:02:55.151Z,18.13
2023-02-07T10:05:29.349Z,16.30
2023-02-07T10:07:58.985Z,16.07
2023-02-07T10:10:37.442Z,15.60
2023-02-07T10:13:21.073Z,17.13
2023-02-07T10:15:59.080Z,16.63
2023-02-07T10:18:41.821Z,15.23
2023-02-07T10:21:19.818Z,16.60
2023-02-07T10:24:18.811Z,17.60
2023-02-07T10:26:50.658Z,15.37
2023-02-07T10:29:45.451Z,15.80
2023-02-07T10:32:16.385Z,16.73
2023-02-07T10:34:48.372Z,16.50
2023-02-07T10:37:21.699Z,17.80
2023-02-07T10:39:58.085Z,12.60
2023-02-07T10:42:27.452Z,14.40
2023-02-07T10:44:55.568Z,14.00
2023-02-07T10:47:25.357Z,15.10
2023-02-07T10:49:55.643Z,13.17
2023-02-07T10:52:29.636Z,16.63
2023-02-07T10:55:00.746Z,14.47
2023-02-07T10:57:30.379Z,15.33
2023-02-07T11:00:23.242Z,15.10
2023-02-07T11:02:52.259Z,15.50
2023-02-07T11:05:41.357Z,12.33
2023-02-07T11:08:25.410Z,12.20
2023-02-07T11:10:56.855Z,13.20
2023-02-07T11:13:28.862Z,13.37
2023-02-07T11:16:01.001Z,12.90
2023-02-07T11:18:43.517Z,12.70
2023-02-07T11:21:26.214Z,12.77
2023-02-07T11:23:56.892Z,12.00
2023-02-07T11:26:26.708Z,14.77
2023-02-07T11:29:02.999Z,14.60
2023-02-07T11:31:35.748Z,10.97
2023-02-07T11:34:20.630Z,14.60
2023-02-07T11:36:48.800Z,14.63
2023-02-07T11:39:21.190Z,16.03
2023-02-07T11:41:59.738Z,15.47
2023-02-07T11:44:30.704Z,14.70
2023-02-07T11:47:04.100Z,15.17
2023-02-07T11:49:42.740Z,14.60
2023-02-07T11:52:11.652Z,13.90
2023-02-07T11:54:42.369Z,13.07
2023-02-07T11:57:15.369Z,13.70
2023-02-07T11:59:49.254Z,14.40
2023-02-07T12:02:21.104Z,13.77
2023-02-07T12:04:50.561Z,13.37
2023-02-07T12:07:25.482Z,14.00
2023-02-07T12:09:57.442Z,15.27
2023-02-07T12:12:35.098Z,13.90
2023-02-07T12:15:08.272Z,14.97
2023-02-07T12:17:45.978Z,13.10
2023-02-07T12:20:23.521Z,14.10
2023-02-07T12:23:11.632Z,13.07
2023-02-07T12:25:51.957Z,11.80
2023-02-07T12:28:28.396Z,11.60
2023-02-07T12:31:00.912Z,10.60
2023-02-07T12:33:38.215Z,12.23
2023-02-07T12:36:13.787Z,10.67
2023-02-07T12:38:48.256Z,12.20
2023-02-07T12:41:24.330Z,12.70
2023-02-07T12:44:06.445Z,11.50
2023-02-07T12:46:43.013Z,12.93
2023-02-07T12:49:28.564Z,11.40
2023-02-07T12:52:07.298Z,13.50
2023-02-07T12:54:41.861Z,12.70
2023-02-07T12:57:16.766Z,12.27
2023-02-07T12:59:55.211Z,12.70
2023-02-07T13:02:34.561Z,13.30
2023-02-07T13:05:29.818Z,12.70
2023-02-07T13:08:07.569Z,12.40
2023-02-07T13:10:49.259Z,12.37
2023-02-07T13:13:23.559Z,11.63
2023-02-07T13:15:59.231Z,11.53
2023-02-07T13:18:37.552Z,12.47
2023-02-07T13:21:18.789Z,12.17
2023-02-07T13:23:49.740Z,11.30
2023-02-07T13:26:21.330Z,12.00
2023-02-07T13:28:53.097Z,11.60
2023-02-07T13:31:26.668Z,11.50
2023-02-07T13:33:55.295Z,12.47
2023-02-07T13:36:32.301Z,12.57
2023-02-07T13:39:15.168Z,12.07
2023-02-07T13:41:53.738Z,12.10
2023-02-07T13:44:27.955Z,12.30
2023-02-07T13:47:17.846Z,12.37
2023-02-07T13:49:51.546Z,12.40
2023-02-07T13:52:27.634Z,12.77
2023-02-07T13:55:03.574Z,10.60
2023-02-07T13:58:00.914Z,12.00
2023-02-07T14:00:31.547Z,12.20
2023-02-07T14:03:03.527Z,11.37
2023-02-07T14:05:34.390Z,11.30
2023-02-07T14:08:04.912Z,11.63
2023-02-07T14:10:45.947Z,11.47
2023-02-07T14:13:32.977Z,10.90
2023-02-07T14:16:08.513Z,11.40
2023-02-07T14:18:46.809Z,12.67
2023-02-07T14:21:33.128Z,13.33
2023-02-07T14:24:18.687Z,11.20
2023-02-07T14:27:05.102Z,12.93
2023-02-07T14:29:54.854Z,11.70
2023-02-07T14:33:05.295Z,12.33
2023-02-07T14:35:37.695Z,12.33
2023-02-07T14:38:23.492Z,11.37
2023-02-07T14:41:10.126Z,12.33
2023-02-07T14:44:09.481Z,13.00
2023-02-07T14:46:41.138Z,11.20
2023-02-07T14:49:16.160Z,12.43
2023-02-07T14:51:48.181Z,14.40
2023-02-07T14:54:20.909Z,13.27
2023-02-07T14:56:54.585Z,13.77
2023-02-07T14:59:29.258Z,13.00
2023-02-07T15:01:57.484Z,13.13
2023-02-07T15:04:25.632Z,12.70
2023-02-07T15:06:55.237Z,12.97
2023-02-07T15:09:27.073Z,13.40
2023-02-07T15:12:08.758Z,12.40
2023-02-07T15:14:41.662Z,12.87
2023-02-07T15:17:10.005Z,13.57
2023-02-07T15:19:40.819Z,12.10
2023-02-07T15:22:24.126Z,13.40
2023-02-07T15:24:56.726Z,12.53
2023-02-07T15:27:26.748Z,11.33
2023-02-07T15:29:57.147Z,12.77
2023-02-07T15:32:30.100Z,12.03
2023-02-07T15:34:58.861Z,12.33
2023-02-07T15:37:28.393Z,12.60
2023-02-07T15:39:58.511Z,11.27
2023-02-07T15:42:26.686Z,11.80
2023-02-07T15:44:57.028Z,13.23
2023-02-07T15:47:37.521Z,13.93
2023-02-07T15:50:09.060Z,12.07
2023-02-07T15:52:43.600Z,11.50
2023-02-07T15:55:19.001Z,12.23
2023-02-07T15:57:47.380Z,12.30
2023-02-07T16:00:19.858Z,12.40
2023-02-07T16:02:57.739Z,12.97
2023-02-07T16:05:29.380Z,11.70
2023-02-07T16:07:59.759Z,13.00
2023-02-07T16:10:38.492Z,12.53
2023-02-07T16:13:19.057Z,11.73
2023-02-07T16:15:56.241Z,12.40
2023-02-07T16:18:39.356Z,11.03
2023-02-07T16:21:17.014Z,10.70
2023-02-07T16:23:48.033Z,11.13
2023-02-07T16:26:18.122Z,11.80
2023-02-07T16:28:46.942Z,11.50
2023-02-07T16:31:15.215Z,9.90
2023-02-07T16:33:43.392Z,10.20
2023-02-07T16:36:16.038Z,10.87
2023-02-07T16:38:44.513Z,10.80
2023-02-07T16:41:26.026Z,10.93
2023-02-07T16:43:55.354Z,10.23
2023-02-07T16:46:23.588Z,10.20
2023-02-07T16:48:51.949Z,11.20
2023-02-07T16:51:20.140Z,10.90
2023-02-07T16:53:48.288Z,10.77
2023-02-07T16:56:24.834Z,10.10
2023-02-07T16:58:53.350Z,10.53
2023-02-07T17:01:23.044Z,9.83
2023-02-07T17:03:51.270Z,10.30
2023-02-07T17:06:21.158Z,11.13
2023-02-07T17:08:50.998Z,10.87
2023-02-07T17:11:25.270Z,10.70
2023-02-07T17:13:54.014Z,11.27
2023-02-07T17:16:22.765Z,10.53
2023-02-07T17:18:51.160Z,10.13
2023-02-07T17:21:22.015Z,11.23
2023-02-07T17:23:50.784Z,12.97
2023-02-07T17:26:24.559Z,14.50
2023-02-07T17:28:52.920Z,14.73
2023-02-07T17:31:21.892Z,19.30
2023-02-07T17:33:51.565Z,16.63
2023-02-07T17:36:19.914Z,13.20
2023-02-07T17:38:48.182Z,18.60
2023-02-07T17:41:17.775Z,18.87
2023-02-07T17:43:47.707Z,18.50
2023-02-07T17:46:19.148Z,21.43
2023-02-07T17:48:49.130Z,16.77
2023-02-07T17:51:18.261Z,15.17
2023-02-07T17:53:47.157Z,21.17
2023-02-07T17:56:21.761Z,29.70
2023-02-07T17:58:51.324Z,28.20
2023-02-07T18:01:20.244Z,24.70
2023-02-07T18:03:49.341Z,16.57
2023-02-07T18:06:19.149Z,14.43
2023-02-07T18:08:48.249Z,16.77
2023-02-07T18:11:16.654Z,15.20
2023-02-07T18:13:46.726Z,12.37
2023-02-07T18:16:18.202Z,13.00
2023-02-07T18:18:46.389Z,13.77
2023-02-07T18:21:14.541Z,15.77
2023-02-07T18:23:43.384Z,14.93
2023-02-07T18:26:12.477Z,23.67
2023-02-07T18:28:40.942Z,28.77
2023-02-07T18:31:13.650Z,17.57
2023-02-07T18:33:43.346Z,16.20
2023-02-07T18:36:12.440Z,12.50
2023-02-07T18:38:40.966Z,11.40
2023-02-07T18:41:10.429Z,12.03
2023-02-07T18:43:39.360Z,11.00
2023-02-07T18:46:11.286Z,11.97
2023-02-07T18:48:40.101Z,12.07
2023-02-07T18:51:11.899Z,12.67
2023-02-07T18:53:40.989Z,11.80
2023-02-07T18:56:12.879Z,12.13
2023-02-07T18:58:41.129Z,14.03
2023-02-07T19:01:13.154Z,15.17
2023-02-07T19:03:41.333Z,15.00
2023-02-07T19:06:10.902Z,15.63
2023-02-07T19:08:40.603Z,13.00
2023-02-07T19:11:09.699Z,12.00
2023-02-07T19:13:38.233Z,7.50
2023-02-07T19:16:07.590Z,8.83
2023-02-07T19:18:36.240Z,7.33
2023-02-07T19:21:05.803Z,8.13
2023-02-07T19:23:36.125Z,13.43
2023-02-07T19:26:05.397Z,14.57
2023-02-07T19:28:34.670Z,13.93
2023-02-07T19:31:04.446Z,15.53
2023-02-07T19:33:32.834Z,15.60
2023-02-07T19:36:06.188Z,15.40
2023-02-07T19:38:36.245Z,15.03
2023-02-07T19:41:05.064Z,12.20
2023-02-07T19:43:33.519Z,10.60
2023-02-07T19:46:01.837Z,11.77
2023-02-07T19:48:30.438Z,11.67
2023-02-07T19:51:00.134Z,12.23
2023-02-07T19:53:29.456Z,14.23
2023-02-07T19:56:03.508Z,26.07
2023-02-07T19:58:32.677Z,23.57
2023-02-07T20:01:01.372Z,28.37
2023-02-07T20:03:30.123Z,30.17
2023-02-07T20:06:01.043Z,28.77
2023-02-07T20:08:33.776Z,28.60
2023-02-07T20:11:06.958Z,23.43
2023-02-07T20:13:35.727Z,21.90
2023-02-07T20:16:05.731Z,21.73
2023-02-07T20:18:34.513Z,21.27
2023-02-07T20:21:11.472Z,19.23
2023-02-07T20:23:41.675Z,17.67
2023-02-07T20:26:13.621Z,16.80
2023-02-07T20:28:42.325Z,16.33
2023-02-07T20:31:12.790Z,16.60
2023-02-07T20:33:42.163Z,18.80
2023-02-07T20:36:11.784Z,17.43
2023-02-07T20:38:40.473Z,16.47
2023-02-07T20:41:11.630Z,16.80
2023-02-07T20:43:40.230Z,17.27
2023-02-07T20:46:11.028Z,19.93
2023-02-07T20:48:39.330Z,23.80
2023-02-07T20:51:10.325Z,18.20
2023-02-07T20:53:39.642Z,17.33
2023-02-07T20:56:11.532Z,10.73
2023-02-07T20:58:40.512Z,9.37
2023-02-07T21:01:10.954Z,7.90
2023-02-07T21:03:39.854Z,8.20
2023-02-07T21:06:09.188Z,9.60
2023-02-07T21:08:38.164Z,7.50
2023-02-07T21:11:07.981Z,6.57
2023-02-07T21:13:38.470Z,6.10
2023-02-07T21:16:08.776Z,6.07
2023-02-07T21:18:37.605Z,6.97
2023-02-07T21:21:09.896Z,6.50
2023-02-07T21:23:38.672Z,7.77
2023-02-07T21:26:08.110Z,8.57
2023-02-07T21:28:38.232Z,10.80
2023-02-07T21:31:07.692Z,11.37
2023-02-07T21:33:35.932Z,10.10
2023-02-07T21:36:06.226Z,10.20
2023-02-07T21:38:34.973Z,9.57
2023-02-07T21:41:03.706Z,9.47
2023-02-07T21:43:31.877Z,8.30
2023-02-07T21:46:06.401Z,8.90
2023-02-07T21:48:35.804Z,8.50
2023-02-07T21:51:05.702Z,7.17
2023-02-07T21:53:34.331Z,8.50
2023-02-07T21:56:02.862Z,8.40
2023-02-07T21:58:31.365Z,9.17
2023-02-07T22:01:08.076Z,9.33
2023-02-07T22:03:37.154Z,10.50
2023-02-07T22:06:06.242Z,12.00
2023-02-07T22:08:34.983Z,14.10
2023-02-07T22:11:04.812Z,11.97
2023-02-07T22:13:33.393Z,10.43
2023-02-07T22:16:01.912Z,9.27
2023-02-07T22:18:31.642Z,8.43
2023-02-07T22:21:04.133Z,9.00
2023-02-07T22:23:32.479Z,8.83
2023-02-07T22:26:00.669Z,9.53
2023-02-07T22:28:29.209Z,9.40
2023-02-07T22:30:57.567Z,9.07
2023-02-07T22:33:26.495Z,9.57
2023-02-07T22:35:56.014Z,8.60
2023-02-07T22:38:24.104Z,8.67
2023-02-07T22:40:52.377Z,8.83
2023-02-07T22:43:20.580Z,9.43
2023-02-07T22:45:48.762Z,9.53
2023-02-07T22:48:17.926Z,8.87
2023-02-07T22:50:46.144Z,9.23
2023-02-07T22:53:15.745Z,9.00
2023-02-07T22:55:43.921Z,9.43
2023-02-07T22:58:15.581Z,8.53
2023-02-07T23:00:44.214Z,8.77
2023-02-07T23:03:12.313Z,9.60
2023-02-07T23:05:40.880Z,9.17
2023-02-07T23:08:09.068Z,8.20
2023-02-07T23:10:40.961Z,8.70
2023-02-07T23:13:09.233Z,8.80
2023-02-07T23:15:37.638Z,8.53
2023-02-07T23:18:06.365Z,7.80
2023-02-07T23:20:34.659Z,9.03
2023-02-07T23:23:02.805Z,8.60
2023-02-07T23:25:31.018Z,9.40
2023-02-07T23:28:00.869Z,8.93
2023-02-07T23:30:29.023Z,8.20
2023-02-07T23:32:57.438Z,9.30
2023-02-07T23:35:25.761Z,9.53
2023-02-07T23:37:53.833Z,8.80
2023-02-07T23:40:22.017Z,41.60
2023-02-07T23:42:50.125Z,25.10
2023-02-07T23:45:19.773Z,20.27
2023-02-07T23:47:47.872Z,16.67
2023-02-07T23:50:16.175Z,19.00
2023-02-07T23:52:44.342Z,16.23
2023-02-07T23:55:12.728Z,14.93
2023-02-07T23:57:40.929Z,15.50
